createdAt,value
2018-07-17T00:01:36.120Z,84.90
2018-07-17T00:04:04.129Z,92.60
2018-07-17T00:06:32.062Z,93.30
2018-07-17T00:09:00.009Z,85.10
2018-07-17T00:11:27.932Z,85.00
2018-07-17T00:13:55.883Z,85.00
2018-07-17T00:18:51.841Z,84.70
2018-07-17T00:21:19.769Z,84.60
2018-07-17T00:23:47.829Z,85.30
2018-07-17T00:26:15.758Z,85.30
2018-07-17T00:28:43.714Z,85.60
2018-07-17T00:31:11.638Z,85.80
2018-07-17T00:33:39.613Z,86.70
2018-07-17T00:36:07.557Z,88.70
2018-07-17T00:38:35.564Z,88.90
2018-07-17T00:43:31.504Z,88.80
2018-07-17T00:48:27.424Z,88.50
2018-07-17T00:50:55.367Z,88.30
2018-07-17T00:53:23.333Z,88.50
2018-07-17T00:55:51.274Z,88.30
2018-07-17T00:58:19.221Z,94.60
2018-07-17T01:00:46.669Z,88.40
2018-07-17T01:11:50.634Z,90.20
2018-07-17T01:14:30.953Z,95.40
2018-07-17T01:16:59.001Z,90.30
2018-07-17T01:19:26.995Z,96.00
2018-07-17T01:21:54.954Z,90.70
2018-07-17T01:24:22.926Z,91.10
2018-07-17T01:26:50.845Z,91.10
2018-07-17T01:31:46.874Z,91.80
2018-07-17T01:34:14.794Z,91.50
2018-07-17T01:36:42.738Z,91.70
2018-07-17T01:39:10.738Z,91.70
2018-07-17T01:41:38.704Z,91.90
2018-07-17T01:44:06.677Z,91.80
2018-07-17T01:46:34.661Z,91.20
2018-07-17T01:51:30.524Z,91.60
2018-07-17T01:53:58.487Z,91.90
2018-07-17T01:56:26.417Z,92.20
2018-07-17T01:58:54.390Z,92.50
2018-07-17T02:01:22.319Z,92.60
2018-07-17T02:03:50.254Z,92.10
2018-07-17T02:06:18.220Z,93.10
2018-07-17T02:08:46.175Z,92.60
2018-07-17T02:16:10.060Z,93.10
2018-07-17T02:18:38.022Z,93.40
2018-07-17T02:21:06.243Z,93.60
2018-07-17T02:23:34.214Z,93.80
2018-07-17T02:26:02.202Z,94.30
2018-07-17T02:28:30.135Z,94.80
2018-07-17T02:30:58.110Z,94.60
2018-07-17T02:33:26.040Z,94.60
2018-07-17T02:35:54.005Z,94.70
2018-07-17T02:38:21.942Z,95.70
2018-07-17T02:40:49.859Z,96.00
2018-07-17T02:45:45.723Z,96.30
2018-07-17T02:48:13.663Z,96.50
2018-07-17T02:53:09.560Z,96.00
2018-07-17T02:55:37.511Z,99.90
2018-07-17T02:58:05.484Z,99.90
2018-07-17T03:00:33.404Z,96.70
2018-07-17T03:07:57.213Z,97.00
2018-07-17T03:10:25.167Z,97.90
2018-07-17T03:15:21.038Z,97.10
2018-07-17T03:17:48.979Z,97.40
2018-07-17T03:22:44.822Z,97.60
2018-07-17T03:25:12.742Z,97.70
2018-07-17T03:27:40.797Z,98.10
2018-07-17T03:30:08.816Z,98.50
2018-07-17T03:35:04.904Z,99.20
2018-07-17T03:37:32.854Z,98.90
2018-07-17T03:40:00.788Z,98.90
2018-07-17T03:42:28.785Z,98.40
2018-07-17T03:44:56.751Z,98.60
2018-07-17T03:47:24.726Z,99.00
2018-07-17T03:49:52.664Z,99.00
2018-07-17T03:52:20.759Z,99.20
2018-07-17T03:54:48.701Z,99.20
2018-07-17T03:57:16.650Z,99.30
2018-07-17T03:59:44.586Z,99.00
2018-07-17T04:02:15.520Z,99.30
2018-07-17T04:07:11.584Z,99.40
2018-07-17T04:09:39.508Z,99.20
2018-07-17T04:12:07.505Z,99.40
2018-07-17T04:14:35.436Z,99.50
2018-07-17T04:17:03.442Z,99.60
2018-07-17T04:19:31.385Z,99.90
2018-07-17T04:21:59.314Z,99.90
2018-07-17T04:29:23.170Z,99.90
2018-07-17T04:31:51.164Z,99.90
2018-07-17T04:34:19.063Z,99.90
2018-07-17T04:36:47.021Z,99.90
2018-07-17T04:41:42.863Z,99.90
2018-07-17T04:44:10.868Z,99.90
2018-07-17T04:49:06.853Z,99.90
2018-07-17T04:54:02.782Z,99.90
2018-07-17T04:58:58.672Z,99.90
2018-07-17T05:01:26.811Z,99.90
2018-07-17T05:06:22.756Z,99.90
2018-07-17T05:08:50.714Z,99.90
2018-07-17T05:13:46.609Z,99.90
2018-07-17T05:16:14.542Z,99.90
2018-07-17T05:18:42.481Z,99.90
2018-07-17T05:23:38.944Z,99.90
2018-07-17T05:26:06.931Z,99.90
2018-07-17T05:28:34.884Z,99.90
2018-07-17T05:31:02.841Z,99.90
2018-07-17T05:33:30.770Z,99.90
2018-07-17T05:35:58.711Z,99.90
2018-07-17T05:38:26.645Z,99.90
2018-07-17T05:40:54.593Z,99.90
2018-07-17T05:45:50.449Z,99.90
2018-07-17T05:48:18.388Z,99.90
2018-07-17T05:55:42.196Z,99.80
2018-07-17T06:00:38.135Z,99.60
2018-07-17T06:05:34.033Z,98.70
2018-07-17T06:08:01.986Z,98.70
2018-07-17T06:10:30.013Z,99.90
2018-07-17T06:17:53.887Z,97.40
2018-07-17T06:20:21.830Z,97.10
2018-07-17T06:22:49.806Z,97.70
2018-07-17T06:25:17.725Z,97.40
2018-07-17T06:27:45.694Z,97.30
2018-07-17T06:30:13.617Z,96.70
2018-07-17T06:32:41.536Z,96.70
2018-07-17T06:35:09.497Z,96.50
2018-07-17T06:37:37.423Z,96.20
2018-07-17T06:40:05.396Z,96.10
2018-07-17T06:42:33.312Z,96.70
2018-07-17T06:45:01.235Z,97.00
2018-07-17T06:47:29.253Z,97.20
2018-07-17T06:49:57.177Z,96.80
2018-07-17T06:57:21.099Z,97.30
2018-07-17T06:59:49.007Z,97.20
2018-07-17T07:02:16.943Z,97.30
2018-07-17T07:04:44.908Z,97.20
2018-07-17T07:07:12.851Z,97.50
2018-07-17T07:12:10.113Z,98.50
2018-07-17T07:14:38.560Z,96.60
2018-07-17T07:17:06.516Z,96.40
2018-07-17T07:19:34.808Z,96.20
2018-07-17T07:22:02.748Z,95.90
2018-07-17T07:24:30.785Z,99.90
2018-07-17T07:29:26.775Z,93.60
2018-07-17T07:31:54.701Z,93.50
2018-07-17T07:36:50.637Z,92.80
2018-07-17T07:39:18.580Z,92.20
2018-07-17T07:46:43.782Z,85.30
2018-07-17T07:49:11.761Z,79.90
2018-07-17T07:51:39.633Z,77.90
2018-07-17T07:54:07.593Z,78.30
2018-07-17T07:56:35.509Z,77.40
2018-07-17T07:59:03.490Z,81.00
2018-07-17T08:01:31.413Z,77.00
2018-07-17T08:03:59.428Z,73.30
2018-07-17T08:06:27.319Z,74.10
2018-07-17T08:08:55.249Z,74.00
2018-07-17T08:11:23.208Z,74.50
2018-07-17T08:16:19.059Z,76.80
2018-07-17T08:18:47.006Z,76.70
2018-07-17T08:23:42.887Z,73.40
2018-07-17T08:26:10.815Z,74.10
2018-07-17T08:31:06.692Z,74.00
2018-07-17T08:33:34.734Z,73.10
2018-07-17T08:36:02.688Z,72.90
2018-07-17T08:38:30.655Z,72.80
2018-07-17T08:45:54.476Z,73.30
2018-07-17T08:48:22.471Z,72.40
2018-07-17T08:50:50.417Z,72.50
2018-07-17T08:53:18.426Z,72.60
2018-07-17T08:55:46.407Z,82.90
2018-07-17T08:58:14.332Z,83.00
2018-07-17T09:00:42.304Z,70.90
2018-07-17T09:03:10.221Z,72.20
2018-07-17T09:08:06.221Z,70.40
2018-07-17T09:10:34.205Z,69.40
2018-07-17T09:13:02.217Z,69.70
2018-07-17T09:15:30.088Z,69.00
2018-07-17T09:17:58.058Z,68.50
2018-07-17T09:20:26.029Z,69.80
2018-07-17T09:22:54.001Z,68.30
2018-07-17T09:25:21.935Z,67.20
2018-07-17T09:30:17.852Z,66.90
2018-07-17T09:32:45.782Z,66.90
2018-07-17T09:35:13.774Z,67.20
2018-07-17T09:37:41.728Z,66.80
2018-07-17T09:40:09.665Z,77.30
2018-07-17T09:42:37.639Z,66.50
2018-07-17T09:45:05.850Z,68.60
2018-07-17T09:47:33.846Z,67.30
2018-07-17T09:52:29.702Z,67.10
2018-07-17T09:54:57.650Z,67.10
2018-07-17T09:59:53.526Z,66.90
2018-07-17T10:02:30.837Z,67.40
2018-07-17T10:04:59.659Z,67.80
2018-07-17T10:12:24.695Z,68.40
2018-07-17T10:17:20.731Z,68.30
2018-07-17T10:24:44.657Z,68.60
2018-07-17T10:27:12.626Z,78.50
2018-07-17T10:29:40.576Z,78.10
2018-07-17T10:37:04.690Z,66.30
2018-07-17T10:39:32.638Z,77.10
2018-07-17T10:44:28.568Z,67.50
2018-07-17T10:46:56.515Z,75.60
2018-07-17T10:49:24.505Z,66.90
2018-07-17T10:51:52.469Z,66.60
2018-07-17T10:54:20.450Z,66.60
2018-07-17T10:59:16.324Z,67.70
2018-07-17T11:01:44.330Z,65.90
2018-07-17T11:04:12.306Z,65.70
2018-07-17T11:06:40.318Z,75.00
2018-07-17T11:09:08.275Z,65.90
2018-07-17T11:14:04.283Z,63.50
2018-07-17T11:16:32.534Z,63.80
2018-07-17T11:19:00.556Z,63.30
2018-07-17T11:23:56.464Z,64.60
2018-07-17T11:28:52.343Z,63.80
2018-07-17T11:31:20.322Z,61.10
2018-07-17T11:33:48.259Z,63.30
2018-07-17T11:36:16.297Z,63.20
2018-07-17T11:38:44.302Z,62.00
2018-07-17T11:41:12.236Z,62.90
2018-07-17T11:43:40.366Z,62.50
2018-07-17T11:46:08.332Z,60.80
2018-07-17T11:48:36.248Z,59.80
2018-07-17T11:51:04.212Z,59.10
2018-07-17T11:53:32.175Z,58.90
2018-07-17T11:56:00.148Z,59.30
2018-07-17T11:58:28.193Z,67.70
2018-07-17T12:00:56.287Z,68.20
2018-07-17T12:03:24.212Z,58.30
2018-07-17T12:05:52.269Z,57.20
2018-07-17T12:08:20.109Z,57.60
2018-07-17T12:10:48.047Z,59.00
2018-07-17T12:13:16.064Z,58.50
2018-07-17T12:15:44.010Z,55.40
2018-07-17T12:20:40.174Z,54.80
2018-07-17T12:23:07.886Z,55.90
2018-07-17T12:25:35.884Z,54.50
2018-07-17T12:35:27.668Z,56.30
2018-07-17T12:40:23.627Z,58.10
2018-07-17T12:42:51.643Z,61.60
2018-07-17T12:45:19.583Z,60.80
2018-07-17T12:47:47.569Z,58.70
2018-07-17T12:50:15.533Z,55.10
2018-07-17T12:52:43.506Z,64.00
2018-07-17T12:55:11.473Z,54.10
2018-07-17T12:57:39.407Z,54.70
2018-07-17T13:00:07.593Z,53.90
2018-07-17T13:05:03.517Z,54.20
2018-07-17T13:07:31.725Z,56.50
2018-07-17T13:09:59.663Z,59.10
2018-07-17T13:12:27.651Z,59.40
2018-07-17T13:14:55.561Z,60.70
2018-07-17T13:19:51.467Z,62.20
2018-07-17T13:22:19.433Z,62.10
2018-07-17T13:24:47.739Z,60.90
2018-07-17T13:27:15.859Z,70.80
2018-07-17T13:29:43.844Z,59.30
2018-07-17T13:32:11.952Z,73.80
2018-07-17T13:37:07.971Z,66.70
2018-07-17T13:42:03.894Z,66.90
2018-07-17T13:44:31.854Z,66.90
2018-07-17T13:46:59.872Z,77.90
2018-07-17T13:49:27.841Z,66.40
2018-07-17T13:51:55.824Z,65.70
2018-07-17T13:54:23.821Z,65.40
2018-07-17T13:56:51.748Z,65.40
2018-07-17T13:59:19.727Z,65.30
2018-07-17T14:01:47.657Z,63.50
2018-07-17T14:04:15.641Z,63.90
2018-07-17T14:06:43.634Z,63.10
2018-07-17T14:09:11.576Z,62.50
2018-07-17T14:19:03.612Z,60.20
2018-07-17T14:21:31.548Z,59.90
2018-07-17T14:23:59.516Z,68.60
2018-07-17T14:26:27.444Z,59.20
2018-07-17T14:28:55.416Z,56.40
2018-07-17T14:31:23.356Z,54.50
2018-07-17T14:33:51.302Z,54.60
2018-07-17T14:36:19.267Z,52.70
2018-07-17T14:38:47.210Z,53.10
2018-07-17T14:41:15.165Z,51.80
2018-07-17T14:43:43.133Z,49.60
2018-07-17T14:46:11.105Z,47.80
2018-07-17T14:48:39.311Z,45.70
2018-07-17T14:51:10.293Z,42.80
2018-07-17T14:56:06.940Z,41.30
2018-07-17T15:01:03.930Z,44.60
2018-07-17T15:03:33.829Z,45.30
2018-07-17T15:06:02.592Z,47.60
2018-07-17T15:08:31.686Z,48.30
2018-07-17T15:11:00.582Z,48.60
2018-07-17T15:13:28.759Z,57.70
2018-07-17T15:23:20.874Z,55.80
2018-07-17T15:25:48.930Z,51.20
2018-07-17T15:28:17.047Z,51.80
2018-07-17T15:33:12.836Z,53.10
2018-07-17T15:35:40.777Z,54.20
2018-07-17T15:40:36.645Z,55.00
2018-07-17T15:43:04.630Z,55.40
2018-07-17T15:45:32.608Z,55.70
2018-07-17T15:48:00.573Z,56.20
2018-07-17T15:50:28.517Z,56.70
2018-07-17T15:52:56.472Z,56.70
2018-07-17T16:00:20.711Z,57.30
2018-07-17T16:02:48.711Z,57.90
2018-07-17T16:05:17.604Z,57.50
2018-07-17T16:10:15.428Z,58.60
2018-07-17T16:12:44.281Z,58.20
2018-07-17T16:17:40.428Z,59.00
2018-07-17T16:20:08.552Z,58.90
2018-07-17T16:22:36.795Z,58.90
2018-07-17T16:27:33.239Z,58.50
2018-07-17T16:30:01.299Z,58.10
2018-07-17T16:34:57.416Z,57.70
2018-07-17T16:37:25.521Z,57.30
2018-07-17T16:42:21.674Z,58.80
2018-07-17T16:44:49.672Z,60.50
2018-07-17T16:47:17.736Z,61.30
2018-07-17T16:49:45.904Z,61.40
2018-07-17T16:52:13.857Z,61.10
2018-07-17T16:54:41.968Z,61.90
2018-07-17T16:57:09.978Z,60.10
2018-07-17T17:02:06.188Z,60.20
2018-07-17T17:04:34.246Z,62.80
2018-07-17T17:07:02.198Z,62.20
2018-07-17T17:09:30.179Z,70.30
2018-07-17T17:11:58.224Z,68.30
2018-07-17T17:14:26.156Z,67.30
2018-07-17T17:19:22.172Z,59.30
2018-07-17T17:21:50.230Z,59.20
2018-07-17T17:24:18.245Z,58.80
2018-07-17T17:34:10.105Z,58.50
2018-07-17T17:39:08.890Z,57.80
2018-07-17T17:41:36.900Z,67.30
2018-07-17T17:44:06.073Z,57.60
2018-07-17T17:51:30.096Z,56.50
2018-07-17T17:53:58.026Z,53.90
2018-07-17T17:56:26.022Z,54.60
2018-07-17T18:01:21.913Z,53.90
2018-07-17T18:03:49.832Z,53.50
2018-07-17T18:08:45.704Z,53.80
2018-07-17T18:11:13.644Z,54.50
2018-07-17T18:13:42.113Z,55.20
2018-07-17T18:16:10.524Z,55.60
2018-07-17T18:26:03.149Z,59.30
2018-07-17T18:28:31.138Z,60.80
2018-07-17T18:33:27.056Z,62.80
2018-07-17T18:35:55.040Z,62.50
2018-07-17T18:40:50.946Z,63.80
2018-07-17T18:43:18.947Z,64.00
2018-07-17T18:50:50.782Z,64.50
2018-07-17T18:53:20.444Z,65.10
2018-07-17T18:58:47.594Z,66.00
2018-07-17T19:04:10.724Z,68.50
2018-07-17T19:06:38.729Z,69.00
2018-07-17T19:09:08.704Z,68.50
2018-07-17T19:11:36.762Z,68.70
2018-07-17T19:14:04.911Z,69.00
2018-07-17T19:19:01.128Z,69.30
2018-07-17T19:21:29.177Z,69.30
2018-07-17T19:23:57.167Z,69.80
2018-07-17T19:26:25.110Z,69.10
2018-07-17T19:28:53.056Z,69.00
2018-07-17T19:31:21.211Z,70.20
2018-07-17T19:36:17.724Z,70.70
2018-07-17T19:38:45.822Z,70.40
2018-07-17T19:43:41.697Z,70.40
2018-07-17T19:46:09.667Z,70.20
2018-07-17T19:48:37.634Z,71.30
2018-07-17T19:51:06.288Z,72.20
2018-07-17T19:53:34.234Z,72.80
2018-07-17T19:56:02.192Z,73.50
2018-07-17T19:58:30.144Z,74.10
2018-07-17T20:00:58.159Z,75.30
2018-07-17T20:03:26.103Z,75.30
2018-07-17T20:05:54.069Z,75.40
2018-07-17T20:08:22.128Z,75.90
2018-07-17T20:10:50.150Z,76.20
2018-07-17T20:13:18.132Z,77.00
2018-07-17T20:15:47.070Z,77.00
2018-07-17T20:20:43.141Z,75.60
2018-07-17T20:23:11.455Z,74.80
2018-07-17T20:25:39.441Z,74.10
2018-07-17T20:28:07.475Z,74.20
2018-07-17T20:30:35.428Z,84.80
2018-07-17T20:33:03.420Z,74.80
2018-07-17T20:35:31.370Z,74.50
2018-07-17T20:37:59.326Z,74.90
2018-07-17T20:40:27.274Z,75.50
2018-07-17T20:42:55.341Z,75.30
2018-07-17T20:47:51.294Z,75.60
2018-07-17T20:52:47.193Z,76.30
2018-07-17T20:55:15.082Z,75.80
2018-07-17T21:00:10.975Z,75.80
2018-07-17T21:02:39.017Z,75.70
2018-07-17T21:05:06.931Z,75.80
2018-07-17T21:07:35.100Z,75.70
2018-07-17T21:10:03.095Z,74.80
2018-07-17T21:17:26.948Z,73.00
2018-07-17T21:19:54.886Z,73.00
2018-07-17T21:22:22.838Z,72.80
2018-07-17T21:27:19.568Z,72.90
2018-07-17T21:29:47.500Z,73.50
2018-07-17T21:32:15.480Z,73.40
2018-07-17T21:34:43.456Z,74.00
2018-07-17T21:37:11.456Z,87.20
2018-07-17T21:42:07.370Z,75.70
2018-07-17T21:44:35.351Z,76.00
2018-07-17T21:51:59.700Z,81.10
2018-07-17T21:54:27.645Z,88.20
2018-07-17T21:59:25.429Z,76.80
2018-07-17T22:04:21.342Z,78.80
2018-07-17T22:06:49.317Z,78.70
2018-07-17T22:09:17.241Z,78.10
2018-07-17T22:11:45.214Z,78.30
2018-07-17T22:14:13.162Z,79.80
2018-07-17T22:16:41.122Z,79.70
2018-07-17T22:19:09.238Z,78.00
2018-07-17T22:21:37.202Z,77.40
2018-07-17T22:24:05.190Z,76.80
2018-07-17T22:26:33.123Z,76.80
2018-07-17T22:29:01.060Z,77.00
2018-07-17T22:31:29.029Z,77.30
2018-07-17T22:33:56.955Z,77.70
2018-07-17T22:36:24.937Z,78.00
2018-07-17T22:41:20.850Z,78.20
2018-07-17T22:43:48.798Z,90.30
2018-07-17T22:46:16.795Z,90.70
2018-07-17T22:48:44.734Z,90.70
2018-07-17T22:51:12.711Z,90.70
2018-07-17T22:53:40.684Z,78.70
2018-07-17T22:56:08.720Z,79.00
2018-07-17T22:58:36.644Z,78.60
2018-07-17T23:01:04.759Z,78.60
2018-07-17T23:03:32.701Z,78.70
2018-07-17T23:08:28.598Z,78.70
2018-07-17T23:10:56.599Z,90.50
2018-07-17T23:13:24.522Z,90.30
2018-07-17T23:15:52.498Z,90.50
2018-07-17T23:18:20.427Z,79.50
2018-07-17T23:20:48.386Z,91.00
2018-07-17T23:23:16.331Z,80.50
2018-07-17T23:28:12.319Z,82.50
2018-07-17T23:30:40.297Z,82.60
2018-07-17T23:33:08.227Z,82.20
2018-07-17T23:35:36.186Z,81.70
2018-07-17T23:40:32.063Z,81.60
2018-07-17T23:42:59.988Z,82.00
2018-07-17T23:45:27.974Z,82.50
2018-07-17T23:47:55.929Z,82.80
2018-07-17T23:50:23.877Z,83.20
2018-07-17T23:52:51.866Z,82.70
2018-07-17T23:55:19.824Z,82.90
2018-07-17T23:57:47.761Z,83.10
